Time;durP1;ratioP1;P1;durP2;ratioP2;P2;SDS_P1;SDS_P2;PMS_P1;PMS_P2;Temp;Humidity;BMP_temperature;BMP_pressure;BME280_temperature;BME280_humidity;BME280_pressure;Samples;Min_cycle;Max_cycle;Signal;HPM_P1;HPM_P2
2022/04/02 00:01:58;;;;;;;35.88;21.58;;;282.40;2278.40;;;;;;5001817;28;20105;-75
2022/04/02 00:04:24;;;;;;;36.00;22.63;;;282.30;2278.40;;;;;;5002805;28;20062;-75
2022/04/02 00:06:50;;;;;;;37.80;22.67;;;282.40;2278.40;;;;;;5002700;28;20021;-75
2022/04/02 00:09:16;;;;;;;37.08;23.45;;;282.20;2278.40;;;;;;5000846;28;20030;-75
2022/04/02 00:11:42;;;;;;;32.78;21.90;;;282.20;2278.40;;;;;;5002524;28;20363;-75
2022/04/02 00:14:07;;;;;;;36.03;24.33;;;282.30;2278.40;;;;;;5003086;28;20050;-75
2022/04/02 00:16:33;;;;;;;47.22;27.08;;;282.30;2278.40;;;;;;5001958;28;20489;-75
2022/04/02 00:18:59;;;;;;;41.17;26.58;;;282.20;2278.40;;;;;;5009647;28;20037;-76
2022/04/02 00:21:25;;;;;;;31.25;21.17;;;282.40;2278.40;;;;;;5012142;28;20033;-74
2022/04/02 00:23:51;;;;;;;32.30;22.52;;;282.50;2278.40;;;;;;5012002;28;20037;-75
2022/04/02 00:26:20;;;;;;;32.30;22.48;;;282.30;2278.40;;;;;;5013356;28;20371;-75
2022/04/02 00:28:50;;;;;;;33.13;21.98;;;282.40;2278.40;;;;;;5011942;28;20105;-75
2022/04/02 00:31:18;;;;;;;31.77;21.35;;;282.40;2278.40;;;;;;5013288;28;20033;-76
2022/04/02 00:33:45;;;;;;;29.08;20.55;;;282.50;2278.40;;;;;;5014873;28;20033;-75
2022/04/02 00:36:12;;;;;;;34.00;22.60;;;282.50;2278.40;;;;;;5016793;28;20049;-75
2022/04/02 00:38:39;;;;;;;32.35;21.73;;;282.40;2278.40;;;;;;5015572;28;20077;-78
2022/04/02 00:41:06;;;;;;;30.58;20.38;;;282.50;2278.40;;;;;;5016761;28;20072;-82
2022/04/02 00:43:38;;;;;;;31.02;21.75;;;282.40;2278.40;;;;;;5015494;28;20478;-76
2022/04/02 00:46:06;;;;;;;31.35;21.42;;;282.40;2278.40;;;;;;5016625;28;20026;-76
2022/04/02 00:48:32;;;;;;;31.52;21.92;;;282.50;2278.40;;;;;;5015522;28;20026;-82
2022/04/02 00:51:01;;;;;;;30.60;19.80;;;282.40;2278.40;;;;;;5016611;28;20030;-75
2022/04/02 00:53:35;;;;;;;30.17;20.75;;;282.40;2278.40;;;;;;5015329;28;20018;-75
2022/04/02 00:56:01;;;;;;;31.25;21.90;;;282.40;2278.40;;;;;;5016608;28;20061;-75
2022/04/02 00:58:27;;;;;;;32.47;21.88;;;282.50;2278.40;;;;;;5015079;28;20037;-75
2022/04/02 01:00:53;;;;;;;29.70;21.00;;;307.20;2304.00;;;;;;5016382;28;20029;-75
2022/04/02 01:03:19;;;;;;;;;;;282.50;2278.40;;;;;;5015465;28;20026;-75
2022/04/02 01:05:45;;;;;;;29.00;20.30;;;282.40;2278.40;;;;;;5016528;28;19960;-75
2022/04/02 01:08:11;;;;;;;;;;;282.40;2278.40;;;;;;5016647;28;20255;-75
2022/04/02 01:10:41;;;;;;;29.08;20.23;;;282.20;2278.40;;;;;;5015037;28;19912;-78
2022/04/02 01:13:08;;;;;;;29.92;20.75;;;282.20;2278.40;;;;;;5016132;28;20041;-75
2022/04/02 01:15:34;;;;;;;29.80;21.20;;;282.20;2278.40;;;;;;5015010;28;20462;-75
2022/04/02 01:18:00;;;;;;;31.23;22.73;;;282.00;2278.40;;;;;;5014918;28;20437;-75
2022/04/02 01:20:29;;;;;;;31.77;21.75;;;282.10;2278.40;;;;;;5015893;28;20022;-75
2022/04/02 01:22:55;;;;;;;32.17;22.75;;;281.70;2278.40;;;;;;5014630;28;20022;-75
2022/04/02 01:25:21;;;;;;;33.05;22.83;;;281.80;2278.40;;;;;;5015639;28;20121;-76
2022/04/02 01:27:47;;;;;;;32.40;22.23;;;281.70;2278.40;;;;;;5015112;28;20494;-75
2022/04/02 01:30:14;;;;;;;34.72;22.77;;;281.90;2278.40;;;;;;5015871;28;20029;-75
2022/04/02 01:32:41;;;;;;;30.45;21.27;;;281.80;2278.40;;;;;;5015919;28;20032;-74
2022/04/02 01:35:08;;;;;;;31.83;22.58;;;281.70;2278.40;;;;;;5015654;28;20026;-82
2022/04/02 01:37:35;;;;;;;29.13;20.48;;;281.60;2278.40;;;;;;5015630;28;20045;-75
2022/04/02 01:40:03;;;;;;;32.00;22.88;;;256.90;2252.80;;;;;;5014240;28;20485;-75
2022/04/02 01:42:29;;;;;;;32.83;22.63;;;281.70;2278.40;;;;;;5014696;28;20046;-75
2022/04/02 01:44:55;;;;;;;30.70;20.48;;;281.90;2278.40;;;;;;5015255;28;20102;-75
2022/04/02 01:47:22;;;;;;;30.73;22.23;;;282.00;2278.40;;;;;;5015471;28;20465;-76
2022/04/02 01:49:49;;;;;;;28.95;20.80;;;282.10;2278.40;;;;;;5015464;28;20025;-81
2022/04/02 01:52:20;;;;;;;28.45;20.35;;;282.20;2278.40;;;;;;5014040;28;20132;-76
2022/04/02 01:54:49;;;;;;;26.83;19.85;;;282.10;2278.40;;;;;;5015251;28;20405;-76
2022/04/02 01:57:17;;;;;;;28.17;20.13;;;281.90;2278.40;;;;;;5015231;28;20478;-75
2022/04/02 01:59:44;;;;;;;32.47;22.25;;;282.00;2278.40;;;;;;5014140;28;20026;-82
2022/04/02 02:02:11;;;;;;;34.15;22.73;;;282.10;2278.40;;;;;;5015260;28;20025;-75
2022/04/02 02:04:37;;;;;;;33.03;23.27;;;282.10;2278.40;;;;;;5014030;28;20025;-76
2022/04/02 02:07:04;;;;;;;29.67;21.83;;;282.10;2278.40;;;;;;5015231;28;20030;-77
2022/04/02 02:09:30;;;;;;;31.85;22.60;;;281.80;2278.40;;;;;;5014833;28;20021;-76
2022/04/02 02:11:56;;;;;;;30.38;22.02;;;281.90;2278.40;;;;;;5015177;28;20493;-75
2022/04/02 02:14:22;;;;;;;29.83;22.27;;;281.70;2278.40;;;;;;5013823;28;20058;-75
2022/04/02 02:16:48;;;;;;;31.20;22.90;;;281.80;2278.40;;;;;;5014722;28;20026;-75
2022/04/02 02:19:14;;;;;;;30.60;22.45;;;281.80;2278.40;;;;;;5013801;28;20049;-74
2022/04/02 02:21:40;;;;;;;31.83;22.85;;;281.80;2278.40;;;;;;5014990;28;20018;-75
2022/04/02 02:24:06;;;;;;;31.73;22.70;;;281.80;2278.40;;;;;;5014491;28;20080;-74
2022/04/02 02:26:32;;;;;;;30.40;22.67;;;281.90;2278.40;;;;;;5013919;28;20080;-75
2022/04/02 02:28:58;;;;;;;29.45;21.52;;;281.90;2278.40;;;;;;5014784;28;20033;-74
2022/04/02 02:31:24;;;;;;;30.55;22.67;;;281.80;2278.40;;;;;;5014670;28;20030;-75
2022/04/02 02:36:34;;;;;;;54.17;31.10;;;281.70;2278.40;;;;;;5014785;28;20052;-74
2022/04/02 02:39:00;;;;;;;55.28;31.55;;;281.80;2278.40;;;;;;5014568;28;20025;-75
2022/04/02 02:41:26;;;;;;;45.20;28.65;;;281.80;2278.40;;;;;;5013468;28;20049;-75
2022/04/02 02:43:52;;;;;;;37.78;26.17;;;281.80;2278.40;;;;;;5014346;28;20061;-84
2022/04/02 02:46:18;;;;;;;33.60;24.15;;;256.80;2252.80;;;;;;5014420;28;20462;-74
2022/04/02 02:48:45;;;;;;;33.58;24.33;;;256.70;2252.80;;;;;;5014447;28;20030;-74
2022/04/02 02:51:11;;;;;;;35.47;25.05;;;256.50;2252.80;;;;;;5014419;28;20417;-76
2022/04/02 02:53:37;;;;;;;40.03;27.65;;;256.50;2252.80;;;;;;5013876;28;20021;-75
2022/04/02 02:56:03;;;;;;;46.60;28.85;;;256.60;2252.80;;;;;;5013575;28;20029;-76
2022/04/02 02:58:29;;;;;;;48.38;29.17;;;256.70;2252.80;;;;;;5014001;28;20026;-75
2022/04/02 03:00:54;;;;;;;36.08;26.95;;;256.70;2252.80;;;;;;5014524;28;20552;-76
2022/04/02 03:03:22;;;;;;;;;;;256.50;2252.80;;;;;;5013411;28;20493;-76
2022/04/02 03:05:48;;;;;;;;;;;256.60;2252.80;;;;;;5014797;28;19906;-76
2022/04/02 03:08:13;;;;;;;38.60;25.70;;;256.50;2252.80;;;;;;5014217;28;20381;-79
2022/04/02 03:10:40;;;;;;;43.67;28.02;;;256.50;2252.80;;;;;;5013927;28;20026;-80
2022/04/02 03:13:06;;;;;;;42.08;27.92;;;256.10;2252.80;;;;;;5012901;28;20029;-80
2022/04/02 03:15:32;;;;;;;39.08;28.85;;;256.10;2252.80;;;;;;5013046;28;20033;-75
2022/04/02 03:18:06;;;;;;;44.42;32.33;;;256.00;2252.80;;;;;;5012582;28;20044;-76
2022/04/02 03:20:32;;;;;;;44.55;31.48;;;231.30;2252.80;;;;;;5013160;28;20041;-76
2022/04/02 03:22:58;;;;;;;41.28;28.75;;;231.20;2252.80;;;;;;5012436;28;20424;-75
2022/04/02 03:25:24;;;;;;;39.15;26.85;;;231.20;2252.80;;;;;;5012491;28;20033;-77
2022/04/02 03:27:50;;;;;;;;;;;231.10;2252.80;;;;;;5013328;28;20030;-76
2022/04/02 03:30:22;;;;;;;37.85;26.33;;;230.90;2252.80;;;;;;5012551;28;19912;-75
2022/04/02 03:32:49;;;;;;;42.22;28.45;;;230.90;2252.80;;;;;;5012442;28;20021;-75
2022/04/02 03:35:15;;;;;;;44.88;30.48;;;230.90;2252.80;;;;;;5012725;28;20037;-76
2022/04/02 03:37:43;;;;;;;46.63;30.70;;;230.90;2252.80;;;;;;5012467;28;20045;-75
2022/04/02 03:40:17;;;;;;;42.53;28.38;;;231.00;2252.80;;;;;;5012264;28;20402;-75
2022/04/02 03:42:44;;;;;;;43.70;29.58;;;231.00;2252.80;;;;;;5013734;28;20025;-76
2022/04/02 03:45:12;;;;;;;46.47;30.98;;;230.90;2252.80;;;;;;5012331;28;20481;-75
2022/04/02 03:47:38;;;;;;;73.63;36.45;;;230.80;2252.80;;;;;;5012585;28;20131;-75
2022/04/02 03:50:05;;;;;;;53.90;31.30;;;230.90;2252.80;;;;;;5013637;28;20485;-76
2022/04/02 03:52:31;;;;;;;52.20;32.33;;;230.70;2252.80;;;;;;5012197;28;20041;-75
2022/04/02 03:54:58;;;;;;;45.80;30.35;;;230.70;2252.80;;;;;;5012320;28;20038;-76
2022/04/02 03:57:23;;;;;;;54.55;30.77;;;230.50;2252.80;;;;;;5012198;28;20038;-80
2022/04/02 03:59:49;;;;;;;55.17;35.10;;;230.40;2252.80;;;;;;5012265;28;20037;-76
2022/04/02 04:02:16;;;;;;;48.67;32.65;;;230.40;2252.80;;;;;;5013409;28;20105;-75
2022/04/02 04:04:42;;;;;;;47.92;31.45;;;205.50;2252.80;;;;;;5013486;28;20025;-75
2022/04/02 04:07:08;;;;;;;50.65;32.47;;;205.30;2252.80;;;;;;5014732;28;20038;-76
2022/04/02 04:09:36;;;;;;;50.88;33.35;;;205.40;2252.80;;;;;;5017258;28;20026;-76
2022/04/02 04:12:03;;;;;;;53.10;32.42;;;205.70;2252.80;;;;;;5016261;28;20109;-75
2022/04/02 04:14:28;;;;;;;52.30;33.97;;;230.40;2252.80;;;;;;5016002;28;20034;-79
2022/04/02 04:16:55;;;;;;;48.90;30.52;;;205.60;2252.80;;;;;;5015819;28;20044;-75
2022/04/02 04:19:21;;;;;;;53.05;32.95;;;205.60;2252.80;;;;;;5017215;28;20096;-78
2022/04/02 04:21:48;;;;;;;49.83;31.98;;;205.60;2252.80;;;;;;5016812;28;20025;-75
2022/04/02 04:24:17;;;;;;;44.25;30.77;;;205.70;2252.80;;;;;;5016995;28;20084;-77
2022/04/02 04:26:43;;;;;;;48.13;32.08;;;205.60;2252.80;;;;;;5015944;28;20140;-76
2022/04/02 04:29:09;;;;;;;48.40;30.38;;;205.60;2252.80;;;;;;5015516;28;20525;-78
2022/04/02 04:31:34;;;;;;;;;;;230.40;2252.80;;;;;;5017322;28;20033;-75
2022/04/02 04:34:00;;;;;;;48.88;31.17;;;205.40;2252.80;;;;;;5016966;28;20313;-75
2022/04/02 04:36:26;;;;;;;50.55;32.83;;;205.50;2252.80;;;;;;5016687;28;20033;-75
2022/04/02 04:38:52;;;;;;;48.85;32.42;;;205.60;2252.80;;;;;;5016914;28;20033;-75
2022/04/02 04:41:18;;;;;;;47.33;31.85;;;205.50;2252.80;;;;;;5016683;28;20030;-76
2022/04/02 04:43:49;;;;;;;51.17;32.22;;;205.30;2252.80;;;;;;5016772;28;20037;-76
2022/04/02 04:46:19;;;;;;;45.80;30.00;;;205.30;2252.80;;;;;;5016768;28;20033;-76
2022/04/02 04:48:46;;;;;;;50.38;30.75;;;205.40;2252.80;;;;;;5015397;28;20022;-76
2022/04/02 04:51:13;;;;;;;47.03;31.70;;;205.40;2252.80;;;;;;5015425;28;20030;-77
2022/04/02 04:53:40;;;;;;;47.50;31.10;;;205.50;2252.80;;;;;;5016399;28;20109;-79
2022/04/02 04:56:06;;;;;;;51.38;30.90;;;205.60;2252.80;;;;;;5015208;28;20037;-75
2022/04/02 04:58:32;;;;;;;49.53;32.30;;;230.40;2252.80;;;;;;5015359;28;20038;-75
2022/04/02 05:00:58;;;;;;;50.17;32.95;;;230.40;2252.80;;;;;;5015157;28;20133;-76
2022/04/02 05:03:25;;;;;;;51.63;33.88;;;205.60;2252.80;;;;;;5015369;28;20034;-78
2022/04/02 05:05:56;;;;;;;46.88;31.00;;;230.40;2252.80;;;;;;5015178;28;20030;-78
2022/04/02 05:08:23;;;;;;;50.15;31.65;;;230.50;2252.80;;;;;;5016176;28;20022;-81
2022/04/02 05:10:50;;;;;;;46.00;31.00;;;230.60;2252.80;;;;;;5016168;28;20045;-76
2022/04/02 05:13:16;;;;;;;49.35;31.77;;;230.60;2252.80;;;;;;5016190;28;20478;-81
2022/04/02 05:15:43;;;;;;;46.75;30.73;;;230.60;2252.80;;;;;;5015053;28;20112;-75
2022/04/02 05:18:10;;;;;;;42.05;29.63;;;230.60;2252.80;;;;;;5014532;28;20038;-75
2022/04/02 05:20:38;;;;;;;49.45;30.48;;;230.70;2252.80;;;;;;5016186;28;20052;-76
2022/04/02 05:23:05;;;;;;;45.22;30.88;;;230.90;2252.80;;;;;;5015838;28;20040;-78
2022/04/02 05:25:33;;;;;;;41.45;28.95;;;230.70;2252.80;;;;;;5016139;28;20026;-80
2022/04/02 05:27:59;;;;;;;43.15;28.48;;;230.90;2252.80;;;;;;5014772;28;20037;-78
2022/04/02 05:30:27;;;;;;;43.97;29.02;;;230.70;2252.80;;;;;;5014450;28;20017;-75
2022/04/02 05:32:55;;;;;;;42.35;29.38;;;230.40;2252.80;;;;;;5015961;28;20458;-75
2022/04/02 05:35:22;;;;;;;48.47;29.67;;;230.60;2252.80;;;;;;5015641;28;20492;-75
2022/04/02 05:37:49;;;;;;;47.65;30.70;;;205.70;2252.80;;;;;;5014705;28;20050;-76
2022/04/02 05:40:15;;;;;;;48.47;31.95;;;205.70;2252.80;;;;;;5014468;28;20018;-77
2022/04/02 05:42:41;;;;;;;46.22;31.52;;;205.70;2252.80;;;;;;5014425;28;20444;-76
2022/04/02 05:45:08;;;;;;;51.92;34.33;;;205.50;2252.80;;;;;;5014319;28;20057;-76
2022/04/02 05:47:49;;;;;;;45.95;30.50;;;205.50;2252.80;;;;;;5011163;28;20022;-77
2022/04/02 05:50:15;;;;;;;51.42;32.88;;;205.50;2252.80;;;;;;5003961;28;21137;-75
2022/04/02 05:52:42;;;;;;;55.28;33.55;;;205.40;2252.80;;;;;;5006408;28;20504;-74
2022/04/02 05:55:10;;;;;;;50.00;33.22;;;205.00;2252.80;;;;;;5011582;28;20104;-74
2022/04/02 05:57:37;;;;;;;56.75;33.83;;;205.10;2252.80;;;;;;5003508;28;20381;-75
2022/04/02 06:00:06;;;;;;;53.85;34.08;;;205.10;2252.80;;;;;;5029968;28;20053;-77
2022/04/02 06:02:32;;;;;;;56.05;36.67;;;205.20;2252.80;;;;;;5011218;28;20041;-76
2022/04/02 06:04:58;;;;;;;94.15;66.47;;;205.30;2252.80;;;;;;5013807;28;20133;-83
2022/04/02 06:07:23;;;;;;;62.40;40.53;;;205.60;2252.80;;;;;;5014814;28;20102;-76
2022/04/02 06:09:49;;;;;;;;;;;205.30;2252.80;;;;;;5015571;28;20501;-82
2022/04/02 06:12:15;;;;;;;57.55;36.70;;;205.40;2252.80;;;;;;5014288;28;19980;-79
2022/04/02 06:14:40;;;;;;;;;;;205.50;2252.80;;;;;;5015071;28;20042;-79
2022/04/02 06:17:06;;;;;;;51.85;33.35;;;205.60;2252.80;;;;;;5014144;28;20397;-79
2022/04/02 06:19:32;;;;;;;;;;;205.50;2252.80;;;;;;5015302;28;20029;-78
2022/04/02 06:21:57;;;;;;;49.67;30.58;;;205.50;2252.80;;;;;;5013765;28;19906;-78
2022/04/02 06:24:23;;;;;;;;;;;205.30;2252.80;;;;;;5014067;28;20030;-78
2022/04/02 06:26:48;;;;;;;51.85;31.65;;;205.30;2252.80;;;;;;5013777;28;19949;-77
2022/04/02 06:29:14;;;;;;;;;;;205.50;2252.80;;;;;;5015160;28;20026;-84
2022/04/02 06:31:40;;;;;;;47.85;30.55;;;205.60;2252.80;;;;;;5013219;28;19910;-78
2022/04/02 06:34:05;;;;;;;;;;;205.30;2252.80;;;;;;5014315;28;20024;-77
2022/04/02 06:36:31;;;;;;;50.03;31.17;;;205.40;2252.80;;;;;;5014319;28;19960;-78
2022/04/02 06:38:57;;;;;;;52.38;33.78;;;205.40;2252.80;;;;;;5013825;28;20030;-77
2022/04/02 06:41:23;;;;;;;;;;;205.60;2252.80;;;;;;5013600;28;20455;-77
2022/04/02 06:43:48;;;;;;;47.75;28.58;;;205.60;2252.80;;;;;;5013338;28;19905;-77
2022/04/02 06:46:14;;;;;;;48.45;30.73;;;205.70;2252.80;;;;;;5013412;28;20478;-78
2022/04/02 06:48:40;;;;;;;;;;;205.70;2252.80;;;;;;5014797;28;20069;-76
2022/04/02 06:51:07;;;;;;;47.47;29.02;;;205.60;2252.80;;;;;;5013779;28;19905;-78
2022/04/02 06:53:34;;;;;;;49.03;31.70;;;205.70;2252.80;;;;;;5005227;28;20020;-75
2022/04/02 06:55:59;;;;;;;45.70;30.13;;;205.70;2252.80;;;;;;5012471;28;20049;-83
2022/04/02 06:58:32;;;;;;;50.55;30.77;;;205.70;2252.80;;;;;;5012548;28;20042;-75
2022/04/02 07:00:58;;;;;;;51.17;32.00;;;230.40;2252.80;;;;;;5012999;28;20100;-75
2022/04/02 07:03:24;;;;;;;58.92;36.80;;;230.50;2252.80;;;;;;5013072;28;20518;-74
2022/04/02 07:05:50;;;;;;;;;;;230.40;2252.80;;;;;;5013239;28;20029;-75
2022/04/02 07:08:16;;;;;;;62.00;36.80;;;230.40;2252.80;;;;;;5012906;28;19905;-75
2022/04/02 07:10:41;;;;;;;;;;;205.70;2252.80;;;;;;5013451;28;20381;-76
2022/04/02 07:13:07;;;;;;;57.45;31.33;;;205.70;2252.80;;;;;;5013847;28;19905;-75
2022/04/02 07:15:32;;;;;;;;;;;230.50;2252.80;;;;;;5014223;28;20473;-76
2022/04/02 07:18:06;;;;;;;62.13;34.17;;;230.70;2252.80;;;;;;5012605;28;19919;-80
2022/04/02 07:20:35;;;;;;;52.65;33.80;;;230.50;2252.80;;;;;;5013773;28;20509;-76
2022/04/02 07:23:02;;;;;;;54.60;33.78;;;205.70;2252.80;;;;;;5012461;28;20118;-77
2022/04/02 07:25:33;;;;;;;55.92;35.08;;;230.50;2252.80;;;;;;5013886;28;20030;-75
2022/04/02 07:27:59;;;;;;;58.63;36.65;;;230.50;2252.80;;;;;;5012455;28;20044;-81
2022/04/02 07:30:25;;;;;;;55.65;35.20;;;230.60;2252.80;;;;;;4996719;28;20466;-80
2022/04/02 07:32:51;;;;;;;52.08;33.60;;;230.70;2252.80;;;;;;5012668;28;20045;-78
2022/04/02 07:35:18;;;;;;;57.80;35.97;;;230.50;2252.80;;;;;;5012501;28;20103;-80
2022/04/02 07:38:02;;;;;;;61.50;38.20;;;230.50;2252.80;;;;;;5012403;28;20424;-75
2022/04/02 07:40:40;;;;;;;54.28;33.75;;;230.70;2252.80;;;;;;5010954;28;20026;-83
2022/04/02 07:43:54;;;;;;;56.20;33.38;;;230.90;2252.80;;;;;;5019394;28;20034;-80
2022/04/02 07:46:28;;;;;;;48.03;31.48;;;231.00;2252.80;;;;;;5010517;28;20030;-79
2022/04/02 07:48:56;;;;;;;47.38;30.70;;;231.10;2252.80;;;;;;5019705;28;20033;-80
2022/04/02 07:51:26;;;;;;;54.97;32.28;;;231.30;2252.80;;;;;;5019429;28;20033;-80
2022/04/02 07:53:55;;;;;;;48.42;31.48;;;256.20;2252.80;;;;;;5019267;28;20124;-78
2022/04/02 07:56:30;;;;;;;55.33;35.45;;;256.00;2252.80;;;;;;5019163;28;20120;-79
2022/04/02 07:59:01;;;;;;;56.97;35.33;;;231.20;2252.80;;;;;;5019200;28;20084;-80
2022/04/02 08:01:28;;;;;;;55.95;35.63;;;231.00;2252.80;;;;;;5019267;28;20295;-79
2022/04/02 08:03:55;;;;;;;79.97;49.35;;;231.10;2252.80;;;;;;5019255;28;20721;-80
2022/04/02 08:06:22;;;;;;;67.97;45.72;;;231.00;2252.80;;;;;;5020399;28;20027;-79
2022/04/02 08:08:48;;;;;;;64.00;38.13;;;231.30;2252.80;;;;;;5019506;28;20057;-80
2022/04/02 08:11:18;;;;;;;56.78;37.03;;;231.30;2252.80;;;;;;5016435;28;20482;-77
2022/04/02 08:13:45;;;;;;;56.55;35.13;;;231.30;2252.80;;;;;;5007579;28;20052;-80
2022/04/02 08:16:11;;;;;;;54.53;33.08;;;231.30;2252.80;;;;;;5007452;28;20030;-77
2022/04/02 08:18:40;;;;;;;57.65;36.05;;;231.30;2252.80;;;;;;5008336;28;20041;-75
2022/04/02 08:21:08;;;;;;;58.72;35.47;;;231.30;2252.80;;;;;;5009638;28;20034;-78
2022/04/02 08:23:35;;;;;;;60.75;39.95;;;256.10;2252.80;;;;;;5007610;28;20023;-77
2022/04/02 08:26:24;;;;;;;58.03;38.03;;;256.20;2252.80;;;;;;5009536;28;20470;-81
2022/04/02 08:29:12;;;;;;;63.83;39.63;;;256.00;2252.80;;;;;;5005607;28;20045;-77
2022/04/02 08:32:09;;;;;;;62.15;41.55;;;256.20;2252.80;;;;;;5000317;28;20440;-82
2022/04/02 08:34:35;;;;;;;64.78;39.38;;;256.30;2252.80;;;;;;4999279;28;20026;-77
2022/04/02 08:37:13;;;;;;;61.50;37.15;;;256.40;2252.80;;;;;;4999236;28;20394;-80
2022/04/02 08:40:32;;;;;;;59.42;38.78;;;256.10;2252.80;;;;;;4999457;28;20026;-77
2022/04/02 08:43:16;;;;;;;;;;;256.10;2252.80;;;;;;4921877;29;20047;-77
2022/04/02 08:46:00;;;;;;;62.95;38.33;;;256.20;2252.80;;;;;;4921417;29;19907;-77
2022/04/02 08:48:33;;;;;;;62.13;38.83;;;256.00;2252.80;;;;;;4904520;29;20051;-79
2022/04/02 08:51:11;;;;;;;96.72;48.42;;;231.30;2252.80;;;;;;4905146;29;20552;-83
2022/04/02 08:53:45;;;;;;;58.60;36.72;;;256.00;2252.80;;;;;;4907634;29;20063;-77
2022/04/02 08:56:20;;;;;;;61.03;37.70;;;256.20;2252.80;;;;;;4902389;29;20032;-81
2022/04/02 08:58:58;;;;;;;54.45;36.13;;;256.30;2252.80;;;;;;4902154;29;20519;-78
2022/04/02 09:01:37;;;;;;;62.28;38.58;;;256.30;2252.80;;;;;;4902363;29;20395;-79
2022/04/02 09:04:20;;;;;;;56.42;37.15;;;256.40;2252.80;;;;;;4901932;29;20039;-78
2022/04/02 09:07:21;;;;;;;60.60;37.53;;;256.60;2252.80;;;;;;4901984;29;20080;-78
2022/04/02 09:10:11;;;;;;;63.47;38.95;;;256.90;2252.80;;;;;;4902162;29;20111;-79
2022/04/02 09:13:14;;;;;;;58.22;37.67;;;281.60;2278.40;;;;;;4917619;28;20044;-77
2022/04/02 09:15:50;;;;;;;58.95;36.72;;;281.80;2278.40;;;;;;4901353;29;20043;-78
2022/04/02 09:18:39;;;;;;;58.67;36.90;;;281.60;2278.40;;;;;;4921384;29;20140;-79
2022/04/02 09:21:37;;;;;;;54.10;35.25;;;281.80;2278.40;;;;;;4990662;28;20038;-78
2022/04/02 09:24:22;;;;;;;56.33;35.85;;;281.90;2278.40;;;;;;4957594;28;20123;-78
2022/04/02 09:26:57;;;;;;;57.80;37.25;;;281.60;2278.40;;;;;;4958095;28;20042;-76
2022/04/02 09:29:27;;;;;;;57.90;37.13;;;281.80;2278.40;;;;;;4974944;28;20034;-74
2022/04/02 09:32:08;;;;;;;60.13;36.28;;;282.00;2278.40;;;;;;4974761;28;20023;-79
2022/04/02 09:35:12;;;;;;;61.08;35.83;;;282.10;2278.40;;;;;;4958674;28;20186;-75
2022/04/02 09:38:15;;;;;;;55.08;36.28;;;282.20;2278.40;;;;;;4935836;29;20050;-75
2022/04/02 09:40:48;;;;;;;58.03;35.28;;;282.30;2278.40;;;;;;4924607;29;20099;-75
2022/04/02 09:43:27;;;;;;;50.17;34.17;;;282.30;2278.40;;;;;;4909336;29;20472;-77
2022/04/02 09:46:10;;;;;;;51.53;33.97;;;282.10;2278.40;;;;;;4920111;29;20492;-78
2022/04/02 09:49:11;;;;;;;59.40;35.33;;;282.30;2278.40;;;;;;4936222;29;20051;-77
2022/04/02 09:51:41;;;;;;;50.55;33.50;;;282.40;2278.40;;;;;;4879662;29;20094;-81
2022/04/02 09:54:29;;;;;;;54.40;36.00;;;282.40;2278.40;;;;;;4863927;29;20109;-82
2022/04/02 09:57:09;;;;;;;56.53;37.00;;;282.00;2278.40;;;;;;4879404;29;20041;-83
2022/04/02 09:59:59;;;;;;;49.70;34.90;;;282.20;2278.40;;;;;;4872451;29;20043;-77
2022/04/02 10:02:50;;;;;;;51.78;33.75;;;282.20;2278.40;;;;;;4898086;29;20078;-79
2022/04/02 10:05:22;;;;;;;50.92;34.38;;;282.30;2278.40;;;;;;4897748;29;20032;-76
2022/04/02 10:08:03;;;;;;;57.50;37.17;;;282.40;2278.40;;;;;;4897938;29;20069;-78
2022/04/02 10:10:30;;;;;;;58.67;37.75;;;282.10;2278.40;;;;;;4897789;29;20047;-78
2022/04/02 10:12:57;;;;;;;59.35;37.97;;;282.10;2278.40;;;;;;4882194;29;20051;-79
2022/04/02 10:15:23;;;;;;;56.95;35.95;;;282.20;2278.40;;;;;;4915120;29;20043;-78
2022/04/02 10:17:52;;;;;;;52.22;36.50;;;282.20;2278.40;;;;;;4935618;29;20044;-78
2022/04/02 10:20:28;;;;;;;60.88;38.92;;;282.10;2278.40;;;;;;4919679;29;20436;-77
2022/04/02 10:23:19;;;;;;;55.72;35.92;;;282.30;2278.40;;;;;;4935153;29;20085;-77
2022/04/02 10:26:09;;;;;;;52.95;34.67;;;282.10;2278.40;;;;;;4919742;29;20141;-76
2022/04/02 10:28:58;;;;;;;63.97;32.97;;;282.10;2278.40;;;;;;4974439;28;20045;-77
2022/04/02 10:31:37;;;;;;;55.80;36.60;;;282.20;2278.40;;;;;;5013427;28;20033;-78
2022/04/02 10:34:16;;;;;;;50.10;33.35;;;282.10;2278.40;;;;;;5000078;28;20050;-77
2022/04/02 10:36:51;;;;;;;47.55;31.75;;;282.10;2278.40;;;;;;4993495;28;20470;-82
2022/04/02 10:39:22;;;;;;;56.17;34.70;;;282.10;2278.40;;;;;;5009702;28;20043;-78
2022/04/02 10:41:54;;;;;;;48.75;32.35;;;282.10;2278.40;;;;;;5013555;28;20018;-75
2022/04/02 10:44:41;;;;;;;52.10;33.33;;;282.10;2278.40;;;;;;5014525;28;20084;-85
2022/04/02 10:47:11;;;;;;;39.60;24.30;;;281.80;2278.40;;;;;;5013287;28;20113;-87
2022/04/02 10:49:40;;;;;;;48.30;31.63;;;281.80;2278.40;;;;;;5013248;28;20077;-80
2022/04/02 10:52:11;;;;;;;49.25;33.22;;;281.80;2278.40;;;;;;5004960;28;20045;-81
2022/04/02 10:54:39;;;;;;;47.42;30.80;;;281.60;2278.40;;;;;;5003007;28;20050;-76
2022/04/02 10:57:05;;;;;;;47.72;32.88;;;281.60;2278.40;;;;;;5006293;28;20046;-78
2022/04/02 10:59:32;;;;;;;53.35;33.88;;;256.90;2252.80;;;;;;5006124;28;20026;-76
2022/04/02 11:02:02;;;;;;;51.35;33.08;;;256.90;2252.80;;;;;;5003989;28;20022;-78
2022/04/02 11:05:03;;;;;;;49.65;32.00;;;256.80;2252.80;;;;;;5018080;28;20073;-77
2022/04/02 11:07:30;;;;;;;59.88;36.22;;;256.80;2252.80;;;;;;5008892;28;20057;-79
2022/04/02 11:09:59;;;;;;;62.20;39.75;;;256.70;2252.80;;;;;;5012907;28;20327;-78
2022/04/02 11:12:33;;;;;;;58.45;37.63;;;256.70;2252.80;;;;;;5013090;28;20030;-78
2022/04/02 11:15:17;;;;;;;53.20;34.42;;;256.70;2252.80;;;;;;5012856;28;20025;-77
2022/04/02 11:17:48;;;;;;;55.28;35.03;;;256.90;2252.80;;;;;;5012795;28;20046;-78
2022/04/02 11:20:17;;;;;;;54.60;35.58;;;281.60;2278.40;;;;;;5014301;28;20029;-78
2022/04/02 11:22:51;;;;;;;58.72;35.85;;;256.70;2252.80;;;;;;5013120;28;20041;-78
2022/04/02 11:25:29;;;;;;;56.70;34.78;;;256.80;2252.80;;;;;;5013327;28;20062;-79
2022/04/02 11:28:05;;;;;;;54.45;34.53;;;256.90;2252.80;;;;;;5013115;28;20040;-80
2022/04/02 11:30:33;;;;;;;58.17;36.40;;;256.80;2252.80;;;;;;5013091;28;20026;-80
2022/04/02 11:33:05;;;;;;;51.80;34.47;;;256.90;2252.80;;;;;;5012993;28;20069;-80
2022/04/02 11:35:58;;;;;;;57.90;35.42;;;281.70;2278.40;;;;;;5012707;28;20474;-78
2022/04/02 11:38:43;;;;;;;59.15;37.42;;;281.80;2278.40;;;;;;5009951;28;20482;-76
2022/04/02 11:41:23;;;;;;;64.05;37.70;;;281.70;2278.40;;;;;;5012367;28;20116;-77
2022/04/02 11:43:53;;;;;;;61.33;38.83;;;281.60;2278.40;;;;;;5012939;28;20041;-76
2022/04/02 11:46:21;;;;;;;65.65;38.22;;;281.70;2278.40;;;;;;5012426;28;20112;-81
2022/04/02 11:48:52;;;;;;;64.28;40.22;;;281.60;2278.40;;;;;;5004665;28;20037;-78
2022/04/02 11:51:29;;;;;;;58.20;38.05;;;281.80;2278.40;;;;;;5003302;28;20026;-80
2022/04/02 11:54:10;;;;;;;61.05;38.92;;;256.90;2252.80;;;;;;5003252;28;20045;-77
2022/04/02 11:56:44;;;;;;;59.08;36.13;;;256.80;2252.80;;;;;;5006739;28;20030;-77
2022/04/02 11:59:16;;;;;;;62.35;39.85;;;281.70;2278.40;;;;;;5013337;28;20056;-77
2022/04/02 12:01:48;;;;;;;57.67;38.40;;;281.60;2278.40;;;;;;5012478;28;20026;-76
2022/04/02 12:04:16;;;;;;;64.55;38.65;;;281.60;2278.40;;;;;;5012370;28;20112;-79
2022/04/02 12:06:47;;;;;;;66.57;41.67;;;256.80;2252.80;;;;;;5003490;28;20034;-77
2022/04/02 12:09:24;;;;;;;69.30;42.47;;;256.80;2252.80;;;;;;5002562;28;20096;-76
2022/04/02 12:11:53;;;;;;;75.00;45.22;;;256.90;2252.80;;;;;;5002996;28;20028;-77
2022/04/02 12:14:38;;;;;;;61.08;37.40;;;281.70;2278.40;;;;;;5012552;28;20030;-80
2022/04/02 12:17:11;;;;;;;55.90;35.72;;;281.70;2278.40;;;;;;5001949;28;20425;-82
2022/04/02 12:19:52;;;;;;;59.28;37.45;;;281.70;2278.40;;;;;;5003411;28;20031;-77
2022/04/02 12:22:25;;;;;;;60.28;37.33;;;281.80;2278.40;;;;;;5019136;28;20021;-80
2022/04/02 12:24:54;;;;;;;57.90;37.90;;;281.70;2278.40;;;;;;5003970;28;20037;-83